Time;durP1;ratioP1;P1;durP2;ratioP2;P2;SDS_P1;SDS_P2;PMS_P1;PMS_P2;Temp;Humidity;BMP_temperature;BMP_pressure;BME280_temperature;BME280_humidity;BME280_pressure;Samples;Min_cycle;Max_cycle;Signal;HPM_P1;HPM_P2
2022/10/02 00:01:55;;;;;;;15.30;5.80;;;;;;;41.79;33.35;101315.97;6128850;23;20452;-72
2022/10/02 00:04:32;;;;;;;21.10;5.20;;;;;;;41.82;33.21;101314.53;6129130;23;20776;-71
2022/10/02 00:07:06;;;;;;;10.90;5.10;;;;;;;41.91;32.75;101309.84;6128983;23;20520;-71
2022/10/02 00:09:58;;;;;;;23.70;7.13;;;;;;;41.98;32.83;101312.88;6128969;23;20500;-72
2022/10/02 00:12:28;;;;;;;18.17;5.47;;;;;;;42.01;32.69;101309.53;6128515;23;20848;-72
2022/10/02 00:15:01;;;;;;;25.83;6.57;;;;;;;42.16;32.77;101297.31;6129006;23;20393;-72
2022/10/02 00:17:34;;;;;;;18.40;6.47;;;;;;;41.91;32.98;101296.22;6129241;23;20468;-73
2022/10/02 00:20:00;;;;;;;14.50;7.70;;;;;;;41.89;32.93;101292.22;6155400;23;20408;-73
2022/10/02 00:23:08;;;;;;;8.53;5.10;;;;;;;41.55;33.38;101296.56;6128717;23;20408;-73
2022/10/02 00:25:51;;;;;;;11.27;5.30;;;;;;;41.38;33.58;101289.22;6117652;23;20392;-72
2022/10/02 00:28:22;;;;;;;25.47;6.20;;;;;;;41.40;33.61;101295.13;6128897;23;20396;-71
2022/10/02 00:30:56;;;;;;;15.60;6.10;;;;;;;41.50;33.59;101300.25;6129057;23;20384;-71
2022/10/02 00:33:48;;;;;;;13.83;5.67;;;;;;;41.25;34.24;101309.16;6128742;23;20462;-71
2022/10/02 00:36:50;;;;;;;21.17;6.33;;;;;;;41.36;33.61;101294.16;6128996;23;20703;-72
2022/10/02 00:39:37;;;;;;;19.93;5.80;;;;;;;41.20;34.03;101285.66;6109369;23;20389;-72
2022/10/02 00:42:36;;;;;;;18.10;5.07;;;;;;;41.36;33.86;101275.09;6128879;23;20408;-72
2022/10/02 00:45:48;;;;;;;9.70;4.80;;;;;;;41.40;33.97;101286.16;6107880;23;20468;-71
2022/10/02 00:48:25;;;;;;;12.20;4.60;;;;;;;41.13;33.87;101288.06;6155503;23;20353;-71
2022/10/02 00:51:10;;;;;;;17.53;7.60;;;;;;;41.23;34.10;101287.72;6128720;23;20381;-71
2022/10/02 00:54:06;;;;;;;12.87;6.30;;;;;;;41.34;33.83;101282.78;6131422;23;20797;-71
2022/10/02 00:57:08;;;;;;;12.10;5.63;;;;;;;41.55;33.64;101280.22;6130590;23;20404;-71
2022/10/02 00:59:41;;;;;;;13.37;5.60;;;;;;;41.50;33.88;101274.97;6130730;23;20373;-71
2022/10/02 01:02:30;;;;;;;16.93;6.93;;;;;;;41.67;33.66;101274.91;6156722;23;20368;-71
2022/10/02 01:05:03;;;;;;;17.63;5.77;;;;;;;41.45;33.60;101266.94;6131115;23;20381;-71
2022/10/02 01:07:29;;;;;;;17.13;5.40;;;;;;;41.32;34.20;101274.13;6106841;23;20770;-71
2022/10/02 01:09:55;;;;;;;22.50;4.90;;;;;;;41.14;34.65;101267.88;6106335;23;20847;-71
2022/10/02 01:12:22;;;;;;;15.23;5.00;;;;;;;41.11;34.07;101254.09;6130490;23;20429;-71
2022/10/02 01:14:48;;;;;;;12.80;6.17;;;;;;;41.25;33.69;101252.84;6157194;23;20359;-72
2022/10/02 01:17:31;;;;;;;12.20;5.70;;;;;;;41.21;34.24;101251.06;6131335;23;20416;-72
2022/10/02 01:20:00;;;;;;;16.80;6.33;;;;;;;41.74;33.53;101252.63;6157451;23;20366;-72
2022/10/02 01:22:31;;;;;;;17.20;6.53;;;;;;;41.48;33.96;101245.31;6106253;23;20477;-71
2022/10/02 01:25:00;;;;;;;13.37;6.00;;;;;;;41.34;34.17;101256.38;6157258;23;20826;-71
2022/10/02 01:27:26;;;;;;;9.53;4.93;;;;;;;41.69;33.58;101250.91;6156957;23;20365;-71
2022/10/02 01:30:01;;;;;;;12.07;7.10;;;;;;;41.63;33.69;101249.47;6130634;23;20897;-71
2022/10/02 01:32:28;;;;;;;12.33;6.33;;;;;;;41.68;32.92;101243.84;6130841;23;20510;-72
2022/10/02 01:34:55;;;;;;;19.77;6.80;;;;;;;41.29;33.32;101245.59;6156815;23;20393;-71
2022/10/02 01:37:25;;;;;;;12.00;5.53;;;;;;;41.59;32.99;101246.56;6106299;23;20880;-72
2022/10/02 01:39:51;;;;;;;16.23;5.63;;;;;;;41.50;32.92;101248.53;6130314;23;20389;-73
2022/10/02 01:42:20;;;;;;;10.80;4.13;;;;;;;41.70;32.52;101249.78;6156963;23;20425;-73
2022/10/02 01:44:47;;;;;;;18.70;5.60;;;;;;;41.66;33.03;101248.81;6130281;23;20401;-71
2022/10/02 01:47:33;;;;;;;8.90;4.83;;;;;;;41.80;32.46;101251.38;6106133;23;20381;-71
2022/10/02 01:50:43;;;;;;;25.00;6.70;;;;;;;41.68;32.77;101238.41;6130112;23;20726;-71
2022/10/02 01:53:38;;;;;;;10.50;5.10;;;;;;;41.65;32.90;101238.25;6130177;23;20425;-71
2022/10/02 01:56:16;;;;;;;14.67;6.70;;;;;;;41.86;32.42;101231.00;6127966;23;20378;-71
2022/10/02 01:59:04;;;;;;;13.77;5.53;;;;;;;41.55;32.43;101220.31;6130152;23;20841;-71
2022/10/02 02:01:46;;;;;;;7.27;4.60;;;;;;;41.86;32.53;101220.09;6130200;23;20385;-71
2022/10/02 02:04:28;;;;;;;14.83;6.50;;;;;;;41.87;32.60;101235.34;6129850;23;20376;-71
2022/10/02 02:07:17;;;;;;;13.80;7.97;;;;;;;42.04;32.35;101239.91;6130237;23;20392;-71
2022/10/02 02:09:57;;;;;;;11.50;5.37;;;;;;;41.85;32.59;101246.53;6130160;23;20456;-71
2022/10/02 02:12:55;;;;;;;10.50;4.90;;;;;;;41.70;32.90;101246.25;6129882;23;20425;-71
2022/10/02 02:15:42;;;;;;;17.10;4.93;;;;;;;41.74;33.02;101247.19;6129992;23;20385;-73
2022/10/02 02:18:28;;;;;;;19.23;6.90;;;;;;;41.86;32.82;101253.59;6130096;23;20392;-73
2022/10/02 02:21:01;;;;;;;16.67;6.17;;;;;;;41.89;32.80;101246.72;6156810;23;20381;-73
2022/10/02 02:23:31;;;;;;;10.43;5.40;;;;;;;41.85;32.69;101248.47;6129868;23;20456;-72
2022/10/02 02:26:02;;;;;;;9.37;6.13;;;;;;;41.81;32.66;101253.00;6105650;23;20401;-72
2022/10/02 02:28:31;;;;;;;20.00;5.00;;;;;;;42.07;32.40;101250.97;6156546;23;20742;-71
2022/10/02 02:30:59;;;;;;;10.93;4.57;;;;;;;41.85;32.55;101256.66;6106127;23;20386;-72
2022/10/02 02:33:31;;;;;;;15.87;5.97;;;;;;;41.89;32.57;101248.63;6129708;23;20421;-72
2022/10/02 02:36:02;;;;;;;13.93;6.43;;;;;;;42.01;32.17;101241.38;6156267;23;20380;-72
2022/10/02 02:38:33;;;;;;;8.50;5.10;;;;;;;41.77;32.64;101241.13;6129881;23;20373;-72
2022/10/02 02:41:06;;;;;;;7.10;4.10;;;;;;;42.04;32.26;101239.91;6106465;23;20434;-72
2022/10/02 02:43:55;;;;;;;14.10;5.53;;;;;;;41.98;32.18;101230.31;6130100;23;20381;-71
2022/10/02 02:46:27;;;;;;;10.60;4.90;;;;;;;42.01;32.56;101235.13;6087793;23;20434;-71
2022/10/02 02:49:03;;;;;;;18.47;5.53;;;;;;;42.04;32.26;101237.19;6101432;23;20358;-71
2022/10/02 02:51:35;;;;;;;17.00;6.37;;;;;;;42.22;32.18;101233.31;6126573;23;20362;-72
2022/10/02 02:54:10;;;;;;;10.00;5.23;;;;;;;42.29;32.06;101233.59;6100003;23;20382;-71
2022/10/02 02:56:37;;;;;;;13.03;6.77;;;;;;;42.27;31.95;101230.41;6077202;23;20850;-72
2022/10/02 02:59:09;;;;;;;16.20;6.03;;;;;;;42.06;32.03;101224.06;6052741;23;20374;-72
2022/10/02 03:01:35;;;;;;;17.33;7.13;;;;;;;42.13;32.21;101225.16;6075988;23;20393;-71
2022/10/02 03:04:01;;;;;;;22.77;5.00;;;;;;;41.99;32.44;101223.75;6076101;23;20888;-72
2022/10/02 03:06:34;;;;;;;17.73;6.00;;;;;;;42.09;32.11;101228.84;6100322;23;20358;-72
2022/10/02 03:09:01;;;;;;;10.10;4.20;;;;;;;42.21;32.04;101222.72;6099942;23;20405;-72
2022/10/02 03:11:32;;;;;;;13.63;5.07;;;;;;;42.18;32.19;101232.38;6075969;23;20462;-71
2022/10/02 03:14:04;;;;;;;11.07;4.40;;;;;;;41.91;32.29;101227.31;6100002;23;20389;-72
2022/10/02 03:17:00;;;;;;;9.90;5.30;;;;;;;42.00;32.23;101233.53;6099357;23;20386;-72
2022/10/02 03:19:56;;;;;;;12.00;5.90;;;;;;;41.83;32.33;101234.38;6100327;23;20458;-72
2022/10/02 03:22:44;;;;;;;17.50;5.77;;;;;;;41.74;32.59;101234.41;6099798;23;20389;-72
2022/10/02 03:25:35;;;;;;;9.87;5.37;;;;;;;41.44;33.01;101236.19;6099792;23;20410;-72
2022/10/02 03:28:20;;;;;;;12.83;5.37;;;;;;;41.73;33.15;101234.69;6126213;23;20355;-72
2022/10/02 03:30:47;;;;;;;16.40;5.53;;;;;;;41.95;32.83;101248.13;6099510;23;20427;-72
2022/10/02 03:33:15;;;;;;;8.40;4.40;;;;;;;42.05;32.07;101244.25;6099671;23;20823;-72
2022/10/02 03:35:43;;;;;;;15.13;5.63;;;;;;;42.07;32.25;101239.28;6097799;23;20386;-74
2022/10/02 03:38:13;;;;;;;19.00;4.80;;;;;;;41.51;32.92;101243.88;6097783;23;20909;-74
2022/10/02 03:40:39;;;;;;;13.07;5.00;;;;;;;41.78;32.88;101237.28;6097765;23;20390;-74
2022/10/02 03:43:06;;;;;;;11.40;5.30;;;;;;;41.84;32.95;101235.97;6097646;23;20389;-74
2022/10/02 03:45:32;;;;;;;9.50;5.80;;;;;;;42.04;32.24;101240.72;6097426;23;20442;-74
2022/10/02 03:47:58;;;;;;;16.60;7.93;;;;;;;41.71;32.76;101242.41;6097636;23;20389;-74
2022/10/02 03:50:24;;;;;;;8.80;5.30;;;;;;;41.91;32.73;101247.19;6098194;23;20393;-74
2022/10/02 03:52:52;;;;;;;14.63;4.97;;;;;;;42.08;32.15;101236.22;6099552;23;20430;-74
2022/10/02 03:55:18;;;;;;;11.40;5.20;;;;;;;42.01;32.33;101241.38;6098791;23;20946;-74
2022/10/02 03:57:45;;;;;;;17.60;5.83;;;;;;;41.77;32.38;101241.94;6098003;23;20422;-74
2022/10/02 04:00:18;;;;;;;26.17;10.03;;;;;;;41.75;32.50;101244.19;6097501;23;20502;-74
2022/10/02 04:02:51;;;;;;;10.40;5.03;;;;;;;41.66;32.37;101243.34;6097845;23;20388;-74
2022/10/02 04:05:34;;;;;;;14.73;6.50;;;;;;;41.92;32.45;101226.97;6124198;23;20367;-74
2022/10/02 04:08:14;;;;;;;14.00;5.67;;;;;;;41.65;33.01;101238.25;6073929;23;20398;-74
2022/10/02 04:10:59;;;;;;;12.70;5.70;;;;;;;41.74;32.91;101239.88;6098519;23;20776;-74
2022/10/02 04:13:39;;;;;;;12.33;4.23;;;;;;;41.74;32.53;101237.16;6125951;23;20410;-74
2022/10/02 04:16:23;;;;;;;24.97;7.70;;;;;;;41.72;32.99;101233.88;6099779;23;20440;-74
2022/10/02 04:19:01;;;;;;;14.07;5.53;;;;;;;41.86;32.47;101234.53;6099736;23;20386;-74
2022/10/02 04:21:45;;;;;;;23.33;7.37;;;;;;;41.95;32.31;101241.88;6099637;23;20759;-74
2022/10/02 04:24:26;;;;;;;13.13;7.80;;;;;;;42.01;32.44;101237.88;6099593;23;20465;-74
2022/10/02 04:27:11;;;;;;;18.93;6.50;;;;;;;42.00;32.25;101239.78;6099360;23;20413;-74
2022/10/02 04:29:57;;;;;;;13.47;5.43;;;;;;;42.08;32.47;101238.94;6099629;23;20476;-74
2022/10/02 04:32:25;;;;;;;21.60;7.83;;;;;;;41.67;33.06;101249.59;6099468;23;20786;-73
2022/10/02 04:34:52;;;;;;;12.87;4.67;;;;;;;41.68;33.04;101245.75;6099697;23;20383;-74
2022/10/02 04:37:44;;;;;;;11.43;4.67;;;;;;;41.80;33.12;101245.91;6099629;23;20874;-74
2022/10/02 04:40:35;;;;;;;9.97;5.57;;;;;;;42.12;32.39;101255.47;6099932;23;20771;-74
2022/10/02 04:43:27;;;;;;;18.33;6.40;;;;;;;41.73;32.93;101257.28;6099803;23;20429;-74
2022/10/02 04:46:22;;;;;;;13.40;6.10;;;;;;;42.03;32.72;101265.56;6142327;23;20437;-74
2022/10/02 04:49:32;;;;;;;15.13;6.03;;;;;;;42.15;32.21;101257.53;6128786;23;20381;-74
2022/10/02 04:52:07;;;;;;;18.33;4.90;;;;;;;42.06;32.24;101270.41;6155395;23;20424;-73
2022/10/02 04:54:38;;;;;;;18.57;4.97;;;;;;;42.00;32.75;101268.97;6128811;23;20391;-73
2022/10/02 04:57:30;;;;;;;14.20;7.30;;;;;;;42.06;32.56;101265.75;6155431;23;20396;-73
2022/10/02 05:00:12;;;;;;;17.50;5.67;;;;;;;42.17;32.60;101259.94;6155471;23;20365;-73
2022/10/02 05:02:50;;;;;;;13.73;4.50;;;;;;;42.18;32.51;101265.09;6128705;23;20868;-73
2022/10/02 05:05:34;;;;;;;12.63;4.57;;;;;;;42.32;32.04;101262.94;6128651;23;20392;-73
2022/10/02 05:08:03;;;;;;;23.17;5.70;;;;;;;42.05;32.24;101268.75;6155547;23;20350;-73
2022/10/02 05:10:47;;;;;;;16.13;6.93;;;;;;;41.77;32.56;101266.44;6128976;23;20385;-74
2022/10/02 05:13:41;;;;;;;10.67;5.27;;;;;;;41.75;33.14;101265.19;6128685;23;20428;-74
2022/10/02 05:16:28;;;;;;;16.63;5.90;;;;;;;41.95;32.49;101269.13;6108387;23;20528;-73
2022/10/02 05:19:22;;;;;;;20.93;5.43;;;;;;;41.89;32.86;101271.22;6128706;23;20397;-74
2022/10/02 05:22:16;;;;;;;15.70;6.10;;;;;;;41.83;32.70;101277.97;6128856;23;20932;-73
2022/10/02 05:24:48;;;;;;;12.40;6.07;;;;;;;41.74;33.01;101278.00;6108059;23;20467;-73
2022/10/02 05:27:30;;;;;;;13.40;6.37;;;;;;;41.88;32.71;101280.53;6128752;23;20385;-73
2022/10/02 05:30:15;;;;;;;17.07;6.93;;;;;;;42.03;32.43;101290.91;6154928;23;20487;-73
2022/10/02 05:32:59;;;;;;;14.77;6.13;;;;;;;42.01;32.70;101292.38;6155122;23;20426;-73
2022/10/02 05:36:01;;;;;;;10.60;5.63;;;;;;;41.95;32.56;101285.50;6128610;23;20758;-73
2022/10/02 05:38:45;;;;;;;8.93;5.17;;;;;;;41.99;32.35;101292.69;6155205;23;20659;-72
2022/10/02 05:41:20;;;;;;;13.03;4.77;;;;;;;42.13;32.40;101287.03;6130004;23;20858;-72
2022/10/02 05:44:26;;;;;;;10.33;4.63;;;;;;;41.84;32.64;101301.38;6130368;23;20377;-72
2022/10/02 05:47:00;;;;;;;9.60;4.30;;;;;;;41.31;33.76;101302.44;6101609;23;20797;-72
2022/10/02 05:49:43;;;;;;;18.30;4.90;;;;;;;41.54;33.09;101293.03;6100949;23;20416;-73
2022/10/02 05:52:16;;;;;;;24.40;4.90;;;;;;;41.48;33.43;101301.69;6127228;23;20416;-74
2022/10/02 05:55:18;;;;;;;16.37;5.43;;;;;;;41.79;32.90;101307.78;6101010;23;20390;-72
2022/10/02 05:58:00;;;;;;;10.80;5.07;;;;;;;41.67;32.66;101310.31;6097675;23;20421;-72
2022/10/02 06:00:42;;;;;;;14.27;5.73;;;;;;;41.88;32.55;101310.50;6053847;23;20390;-72
2022/10/02 06:03:24;;;;;;;12.33;5.83;;;;;;;41.72;32.92;101312.88;6100899;23;20416;-72
2022/10/02 06:06:00;;;;;;;19.10;9.00;;;;;;;41.60;33.45;101310.81;6127261;23;20413;-72
2022/10/02 06:08:39;;;;;;;12.57;5.77;;;;;;;41.52;33.46;101317.06;6100749;23;20830;-72
2022/10/02 06:11:29;;;;;;;14.87;5.60;;;;;;;41.30;33.59;101320.72;6127127;23;20385;-72
2022/10/02 06:14:01;;;;;;;14.90;5.93;;;;;;;40.78;34.11;101326.03;6100751;23;20401;-74
2022/10/02 06:16:53;;;;;;;11.73;5.43;;;;;;;41.32;33.82;101339.47;6100662;23;20743;-74
2022/10/02 06:19:26;;;;;;;13.77;6.90;;;;;;;41.71;33.27;101346.72;6100623;23;20561;-73
2022/10/02 06:22:29;;;;;;;7.80;4.77;;;;;;;41.89;32.96;101357.63;6100693;23;20382;-73
2022/10/02 06:25:26;;;;;;;18.07;6.53;;;;;;;42.11;32.51;101357.41;6096407;23;20401;-72
2022/10/02 06:28:08;;;;;;;15.27;6.67;;;;;;;42.10;32.28;101364.78;6096441;23;20389;-72
2022/10/02 06:30:39;;;;;;;22.10;7.73;;;;;;;42.03;32.42;101367.22;6127174;23;20374;-72
2022/10/02 06:33:27;;;;;;;15.30;7.50;;;;;;;41.80;32.84;101368.53;6100392;23;20432;-73
2022/10/02 06:36:06;;;;;;;14.00;5.27;;;;;;;41.92;32.62;101370.59;6100555;23;20525;-72
2022/10/02 06:38:51;;;;;;;9.93;6.70;;;;;;;41.85;32.77;101377.34;6100608;23;20382;-72
2022/10/02 06:41:45;;;;;;;14.90;6.30;;;;;;;42.07;32.49;101391.91;6100557;23;20379;-72
2022/10/02 06:44:29;;;;;;;13.33;6.30;;;;;;;42.19;32.41;101394.81;6126622;23;20416;-74
2022/10/02 06:47:22;;;;;;;16.97;8.80;;;;;;;42.47;32.05;101399.88;6100432;23;20524;-74
2022/10/02 06:50:18;;;;;;;14.60;7.40;;;;;;;42.34;32.12;101405.19;6100573;23;20390;-74
2022/10/02 06:53:19;;;;;;;14.80;5.40;;;;;;;42.36;31.94;101410.34;6062707;23;20433;-74
2022/10/02 06:56:02;;;;;;;12.77;7.40;;;;;;;42.40;31.91;101425.72;6100716;23;20389;-74
2022/10/02 06:58:44;;;;;;;15.80;6.90;;;;;;;42.26;32.43;101432.50;6100290;23;20382;-73
2022/10/02 07:02:02;;;;;;;17.00;8.80;;;;;;;42.28;32.20;101443.88;6124626;23;20382;-74
2022/10/02 07:04:44;;;;;;;19.77;15.83;;;;;;;41.56;33.74;101450.69;6054157;23;20386;-72
2022/10/02 07:07:28;;;;;;;30.27;17.53;;;;;;;41.90;33.04;101454.59;6100218;23;20390;-72
2022/10/02 07:10:16;;;;;;;44.10;23.70;;;;;;;41.85;32.63;101455.56;6126607;23;20373;-73
2022/10/02 07:13:11;;;;;;;23.20;16.47;;;;;;;42.25;32.20;101452.69;6100029;23;20441;-72
2022/10/02 07:16:10;;;;;;;30.73;17.70;;;;;;;42.21;32.21;101471.63;6100198;23;20918;-72
2022/10/02 07:19:00;;;;;;;29.10;13.83;;;;;;;41.79;32.84;101471.25;6099923;23;20425;-72
2022/10/02 07:21:51;;;;;;;21.10;13.90;;;;;;;41.96;32.80;101475.91;6100234;23;20371;-73
2022/10/02 07:24:24;;;;;;;33.10;20.87;;;;;;;41.13;34.60;101484.00;6099719;23;20386;-72
2022/10/02 07:26:59;;;;;;;39.47;22.43;;;;;;;41.83;33.19;101482.31;6099705;23;20416;-72
2022/10/02 07:29:36;;;;;;;28.13;15.27;;;;;;;41.90;33.31;101490.03;6100100;23;20393;-72
2022/10/02 07:32:17;;;;;;;27.10;15.03;;;;;;;41.98;32.83;101492.75;6123878;23;20439;-72
2022/10/02 07:35:19;;;;;;;26.83;14.47;;;;;;;41.70;33.64;101496.88;6126371;23;20366;-72
2022/10/02 07:37:45;;;;;;;28.97;13.13;;;;;;;42.21;32.58;101503.53;6100110;23;20407;-72
2022/10/02 07:40:29;;;;;;;32.67;15.60;;;;;;;41.83;33.34;101515.03;6100363;23;20465;-72
2022/10/02 07:43:20;;;;;;;27.27;17.33;;;;;;;41.32;33.93;101520.00;6100172;23;20171;-72
2022/10/02 07:46:03;;;;;;;26.40;15.23;;;;;;;41.60;34.16;101517.03;6099642;23;20800;-72
2022/10/02 07:49:07;;;;;;;28.60;14.43;;;;;;;41.81;33.45;101517.28;6100185;23;20386;-72
2022/10/02 07:51:48;;;;;;;21.43;12.23;;;;;;;40.96;34.92;101524.75;6099990;23;20370;-72
2022/10/02 07:55:02;;;;;;;17.73;10.97;;;;;;;41.42;33.78;101529.78;6099706;23;20389;-74
2022/10/02 07:57:32;;;;;;;21.17;13.93;;;;;;;41.95;33.34;101530.75;6009956;23;20800;-74
2022/10/02 08:00:14;;;;;;;22.50;14.60;;;;;;;41.83;33.47;101534.09;6091344;23;20887;-74
2022/10/02 08:02:49;;;;;;;28.50;15.27;;;;;;;41.76;33.63;101537.28;6098102;23;20384;-72
2022/10/02 08:05:24;;;;;;;24.90;15.20;;;;;;;41.97;33.29;101536.69;6097834;23;20395;-76
2022/10/02 08:07:56;;;;;;;18.10;12.00;;;;;;;41.97;33.16;101537.47;6099752;23;20497;-71
2022/10/02 08:10:26;;;;;;;19.07;9.13;;;;;;;42.13;32.93;101538.63;6099647;23;20417;-72
2022/10/02 08:13:22;;;;;;;21.10;8.10;;;;;;;41.86;33.43;101541.63;6099168;23;20821;-72
2022/10/02 08:15:53;;;;;;;13.70;8.27;;;;;;;40.89;34.81;101533.31;6098458;23;20721;-72
2022/10/02 08:18:25;;;;;;;10.50;5.90;;;;;;;41.36;34.41;101536.47;6099057;23;20390;-72
2022/10/02 08:20:51;;;;;;;20.17;10.30;;;;;;;41.29;34.86;101538.81;6098888;23;20377;-74
2022/10/02 08:23:20;;;;;;;11.53;7.83;;;;;;;41.74;34.13;101547.72;6099110;23;20521;-71
2022/10/02 08:25:57;;;;;;;18.77;9.37;;;;;;;41.41;34.01;101554.59;6123147;23;20452;-72
2022/10/02 08:28:56;;;;;;;12.13;7.80;;;;;;;41.79;34.21;101558.44;6128726;23;20404;-73
2022/10/02 08:31:24;;;;;;;13.73;7.37;;;;;;;41.97;33.54;101556.56;6129015;23;20385;-72
2022/10/02 08:33:50;;;;;;;12.40;7.03;;;;;;;42.08;33.43;101557.06;6128823;23;20424;-72
2022/10/02 08:36:28;;;;;;;11.60;8.00;;;;;;;41.92;33.51;101559.41;6128683;23;20467;-72
2022/10/02 08:39:04;;;;;;;10.53;7.70;;;;;;;42.20;33.15;101565.44;6155674;23;20365;-72
2022/10/02 08:41:49;;;;;;;10.93;7.37;;;;;;;42.31;33.29;101565.94;6127996;23;20389;-72
2022/10/02 08:44:42;;;;;;;10.13;7.27;;;;;;;42.42;32.78;101558.22;6126750;23;21118;-70
2022/10/02 08:47:35;;;;;;;9.73;5.60;;;;;;;42.30;33.19;101559.69;6097077;23;20386;-71
2022/10/02 08:50:07;;;;;;;16.20;7.97;;;;;;;42.58;32.46;101564.81;6097175;23;20390;-71
2022/10/02 08:53:10;;;;;;;7.30;5.70;;;;;;;42.59;32.19;101566.41;6123355;23;20770;-72
2022/10/02 08:56:05;;;;;;;10.53;6.97;;;;;;;42.49;32.52;101566.75;6097334;23;20412;-72
2022/10/02 08:59:17;;;;;;;10.00;7.17;;;;;;;42.67;32.51;101570.28;6098069;23;20389;-72
2022/10/02 09:01:49;;;;;;;19.57;10.00;;;;;;;42.77;32.38;101573.47;6123745;23;20362;-73
2022/10/02 09:04:43;;;;;;;9.50;6.93;;;;;;;42.86;32.22;101582.44;6096958;23;20414;-72
2022/10/02 09:07:30;;;;;;;15.93;8.53;;;;;;;42.89;31.98;101579.06;6095544;23;20390;-72
2022/10/02 09:10:10;;;;;;;14.30;8.20;;;;;;;43.16;31.76;101577.13;6097616;23;20406;-72
2022/10/02 09:13:03;;;;;;;11.60;7.73;;;;;;;42.99;31.60;101585.34;6096520;23;20432;-72
2022/10/02 09:15:51;;;;;;;10.73;7.27;;;;;;;43.10;31.26;101578.41;6100169;23;20378;-72
2022/10/02 09:18:29;;;;;;;9.97;6.97;;;;;;;42.82;31.58;101591.59;6127063;23;20386;-71
2022/10/02 09:21:31;;;;;;;11.00;6.43;;;;;;;42.85;30.94;101572.66;6100023;23;20386;-71
2022/10/02 09:23:59;;;;;;;11.63;6.60;;;;;;;42.71;31.35;101576.69;6098339;23;20390;-71
2022/10/02 09:26:49;;;;;;;11.30;6.27;;;;;;;41.73;32.34;101589.63;6099456;23;20388;-72
2022/10/02 09:29:15;;;;;;;10.43;6.20;;;;;;;42.03;32.65;101582.53;6099779;23;20854;-71
2022/10/02 09:32:03;;;;;;;10.10;7.20;;;;;;;42.06;32.29;101583.84;6100136;23;20504;-71
2022/10/02 09:34:49;;;;;;;15.40;7.13;;;;;;;41.76;33.07;101583.59;6100366;23;20576;-71
2022/10/02 09:37:27;;;;;;;11.03;6.50;;;;;;;41.64;33.17;101586.09;6101109;23;20705;-71
2022/10/02 09:40:14;;;;;;;10.20;5.70;;;;;;;41.65;33.16;101581.44;6101220;23;20954;-71
2022/10/02 09:42:40;;;;;;;8.23;5.43;;;;;;;40.98;33.88;101580.44;6101187;23;20381;-71
2022/10/02 09:45:43;;;;;;;6.73;5.10;;;;;;;40.72;34.32;101577.53;6101098;23;20441;-71
2022/10/02 09:48:46;;;;;;;9.40;5.00;;;;;;;40.91;33.74;101577.38;6127245;23;20182;-71
2022/10/02 09:51:49;;;;;;;7.67;4.23;;;;;;;41.23;33.28;101581.72;6127285;23;20679;-71
2022/10/02 09:54:36;;;;;;;17.47;9.00;;;;;;;41.47;33.49;101586.03;6127095;23;20409;-72
2022/10/02 09:57:40;;;;;;;14.40;9.47;;;;;;;41.45;32.99;101588.28;6100957;23;20409;-71
2022/10/02 10:00:42;;;;;;;16.40;9.37;;;;;;;41.60;32.75;101596.00;6053723;23;20389;-72
2022/10/02 10:03:23;;;;;;;18.23;8.17;;;;;;;41.28;33.82;101583.50;6057345;23;20397;-71
2022/10/02 10:06:19;;;;;;;14.50;8.83;;;;;;;41.28;33.41;101575.34;6127262;23;20378;-71
2022/10/02 10:09:07;;;;;;;15.43;7.27;;;;;;;41.20;33.23;101574.19;6100571;23;20457;-71
2022/10/02 10:12:07;;;;;;;19.27;8.37;;;;;;;40.83;34.34;101572.66;6126964;23;20390;-71
2022/10/02 10:15:01;;;;;;;27.27;10.47;;;;;;;41.08;34.26;101568.50;6100637;23;20740;-72
2022/10/02 10:17:59;;;;;;;33.03;10.60;;;;;;;41.20;34.00;101560.56;6076605;23;20387;-71
2022/10/02 10:20:58;;;;;;;28.13;10.40;;;;;;;41.30;33.63;101556.75;6126919;23;20386;-71
2022/10/02 10:23:35;;;;;;;20.57;10.00;;;;;;;41.19;33.48;101549.97;6100834;23;20460;-71
2022/10/02 10:26:42;;;;;;;22.53;9.60;;;;;;;41.19;33.42;101537.19;6100539;23;20448;-71
2022/10/02 10:29:38;;;;;;;27.93;9.80;;;;;;;41.45;33.25;101526.44;6100401;23;20521;-72
2022/10/02 10:32:10;;;;;;;17.93;7.73;;;;;;;41.72;33.13;101521.84;6100131;23;20430;-71
2022/10/02 10:34:44;;;;;;;18.30;7.00;;;;;;;41.72;32.85;101528.09;6100390;23;20425;-70
2022/10/02 10:40:37;;;;;;;12.10;5.90;;;;;;;41.84;32.31;101503.00;6126079;23;20443;-69
2022/10/02 10:43:40;;;;;;;16.00;5.30;;;;;;;41.78;32.29;101498.81;6100258;23;20741;-70
2022/10/02 10:46:11;;;;;;;18.30;6.90;;;;;;;41.95;31.77;101501.56;6126530;23;20501;-70
2022/10/02 10:48:44;;;;;;;20.57;6.00;;;;;;;42.13;31.67;101492.28;6100499;23;20385;-71
2022/10/02 10:51:19;;;;;;;19.33;6.90;;;;;;;42.17;31.72;101489.72;6099984;23;20888;-70
2022/10/02 10:54:30;;;;;;;14.07;8.30;;;;;;;42.07;31.84;101477.22;6097961;23;20504;-71
2022/10/02 10:57:11;;;;;;;12.10;6.73;;;;;;;42.19;31.73;101484.78;6124586;23;20730;-70
2022/10/02 11:00:07;;;;;;;12.23;5.80;;;;;;;42.11;31.45;101480.06;6098099;23;20378;-70
2022/10/02 11:02:53;;;;;;;7.03;3.40;;;;;;;42.07;31.49;101474.47;6124201;23;20394;-69
2022/10/02 11:05:50;;;;;;;11.90;5.77;;;;;;;40.28;34.81;101472.25;6098039;23;20473;-70
2022/10/02 11:08:54;;;;;;;12.00;6.40;;;;;;;40.50;34.69;101460.56;6097631;23;20390;-70
2022/10/02 11:11:54;;;;;;;10.00;5.80;;;;;;;40.95;34.07;101461.34;6125034;23;20343;-70
2022/10/02 11:14:42;;;;;;;21.97;7.53;;;;;;;40.63;34.47;101453.44;6100183;23;20433;-70
2022/10/02 11:17:27;;;;;;;13.70;6.10;;;;;;;40.74;34.15;101447.44;6099156;23;20414;-72
2022/10/02 11:20:23;;;;;;;13.10;6.90;;;;;;;41.06;33.87;101438.16;6098165;23;20456;-72
2022/10/02 11:23:07;;;;;;;8.53;5.40;;;;;;;41.19;33.74;101438.38;6125290;23;20386;-74
2022/10/02 11:26:14;;;;;;;11.73;6.63;;;;;;;40.80;33.74;101437.22;6099596;23;20492;-73
2022/10/02 11:29:03;;;;;;;13.90;7.27;;;;;;;41.16;33.23;101444.47;6099258;23;20794;-76
2022/10/02 11:32:09;;;;;;;11.37;6.13;;;;;;;41.31;33.20;101436.69;6099335;23;20469;-75
2022/10/02 11:35:05;;;;;;;11.60;6.30;;;;;;;41.21;33.00;101436.16;6126194;23;20385;-70
2022/10/02 11:38:08;;;;;;;10.53;5.23;;;;;;;41.61;32.93;101423.28;6099200;23;20390;-70
2022/10/02 11:40:43;;;;;;;9.40;6.70;;;;;;;41.80;32.76;101421.09;6099528;23;20419;-69
2022/10/02 11:43:35;;;;;;;11.10;6.77;;;;;;;41.92;32.34;101419.66;6099780;23;20382;-72
2022/10/02 11:46:35;;;;;;;13.03;8.13;;;;;;;42.03;32.15;101420.94;6056154;23;20412;-72
2022/10/02 11:49:46;;;;;;;9.60;4.70;;;;;;;42.07;32.18;101408.28;6125584;23;20347;-72
2022/10/02 11:52:21;;;;;;;14.27;6.47;;;;;;;42.12;31.63;101405.38;6073908;23;20504;-72
2022/10/02 11:55:01;;;;;;;12.10;6.90;;;;;;;42.18;32.19;101395.94;6125576;23;20390;-72
2022/10/02 11:57:55;;;;;;;14.90;8.90;;;;;;;42.15;32.04;101388.38;6099473;23;20925;-71
2022/10/02 12:00:43;;;;;;;16.37;6.80;;;;;;;42.08;32.12;101391.59;6099460;23;20378;-72
2022/10/02 12:03:30;;;;;;;11.73;5.47;;;;;;;41.86;32.92;101383.59;6125465;23;20390;-73
2022/10/02 12:06:01;;;;;;;22.90;5.57;;;;;;;42.01;32.05;101380.38;6125081;23;20354;-74
2022/10/02 12:08:36;;;;;;;18.43;6.97;;;;;;;41.97;32.67;101376.69;6125723;23;20377;-72
2022/10/02 12:11:13;;;;;;;10.37;5.43;;;;;;;42.04;33.04;101376.19;6099093;23;20397;-73
2022/10/02 12:14:02;;;;;;;12.80;7.10;;;;;;;42.03;32.66;101380.03;6125163;23;20913;-68
2022/10/02 12:16:44;;;;;;;11.07;6.47;;;;;;;42.21;32.57;101378.94;6099013;23;20378;-71
2022/10/02 12:19:34;;;;;;;15.70;6.70;;;;;;;42.07;32.76;101378.28;6099063;23;20776;-75
2022/10/02 12:28:27;;;;;;;11.60;7.20;;;;;;;41.67;33.50;101377.63;6125356;23;20385;-71
2022/10/02 12:31:12;;;;;;;25.53;7.80;;;;;;;41.58;33.37;101366.75;6099665;23;20382;-72
2022/10/02 12:33:43;;;;;;;12.53;8.23;;;;;;;41.74;33.61;101367.91;6099409;23;20653;-70
2022/10/02 12:36:12;;;;;;;12.27;6.40;;;;;;;41.53;33.68;101354.06;6098501;23;20362;-71
2022/10/02 12:39:27;;;;;;;13.03;6.27;;;;;;;42.14;33.43;101346.69;6099349;23;20386;-72